createdAt,value
2022-08-07T00:00:40.041Z,10.81
2022-08-07T00:01:43.559Z,10.77
2022-08-07T00:02:41.418Z,10.74
2022-08-07T00:03:39.185Z,10.73
2022-08-07T00:04:39.172Z,10.71
2022-08-07T00:05:38.145Z,10.76
2022-08-07T00:06:41.001Z,10.74
2022-08-07T00:07:41.202Z,10.74
2022-08-07T00:08:38.110Z,10.73
2022-08-07T00:09:39.076Z,10.73
2022-08-07T00:10:47.607Z,10.70
2022-08-07T00:11:48.049Z,10.66
2022-08-07T00:12:57.789Z,10.65
2022-08-07T00:13:40.526Z,10.65
2022-08-07T00:14:39.022Z,10.65
2022-08-07T00:15:46.627Z,10.63
2022-08-07T00:16:39.000Z,10.63
2022-08-07T00:17:37.968Z,10.62
2022-08-07T00:18:37.958Z,10.62
2022-08-07T00:20:00.581Z,10.60
2022-08-07T00:20:38.943Z,10.60
2022-08-07T00:21:55.886Z,10.60
2022-08-07T00:22:38.912Z,10.56
2022-08-07T00:23:39.511Z,10.58
2022-08-07T00:24:37.900Z,10.55
2022-08-07T00:25:41.578Z,10.52
2022-08-07T00:26:59.403Z,10.51
2022-08-07T00:27:52.644Z,10.47
2022-08-07T00:28:45.988Z,10.44
2022-08-07T00:29:38.822Z,10.43
2022-08-07T00:30:37.791Z,10.40
2022-08-07T00:31:42.078Z,10.40
2022-08-07T00:32:37.762Z,10.40
2022-08-07T00:33:37.759Z,10.37
2022-08-07T00:34:37.747Z,10.36
2022-08-07T00:35:37.716Z,10.37
2022-08-07T00:36:38.621Z,10.36
2022-08-07T00:37:47.772Z,10.37
2022-08-07T00:38:38.975Z,10.34
2022-08-07T00:39:37.718Z,10.32
2022-08-07T00:40:40.343Z,10.33
2022-08-07T00:41:53.039Z,10.33
2022-08-07T00:42:38.640Z,10.32
2022-08-07T00:44:01.080Z,10.32
2022-08-07T00:44:41.403Z,10.34
2022-08-07T00:45:37.590Z,10.32
2022-08-07T00:46:37.578Z,10.28
2022-08-07T00:48:09.666Z,10.26
2022-08-07T00:48:42.002Z,10.22
2022-08-07T00:50:19.216Z,10.19
2022-08-07T00:50:50.538Z,10.19
2022-08-07T00:51:58.210Z,10.18
2022-08-07T00:52:38.497Z,10.18
2022-08-07T00:53:38.845Z,10.19
2022-08-07T00:54:40.607Z,10.21
2022-08-07T00:56:02.139Z,10.15
2022-08-07T00:56:38.463Z,10.09
2022-08-07T00:57:37.420Z,10.06
2022-08-07T00:58:37.411Z,10.01
2022-08-07T00:59:37.415Z,10.00
2022-08-07T01:00:37.390Z,10.00
2022-08-07T01:01:44.239Z,9.97
2022-08-07T01:02:38.377Z,9.97
2022-08-07T01:03:55.333Z,9.96
2022-08-07T01:04:43.101Z,9.99
2022-08-07T01:05:38.313Z,10.00
2022-08-07T01:06:37.311Z,10.04
2022-08-07T01:07:37.298Z,10.04
2022-08-07T01:08:37.295Z,10.04
2022-08-07T01:10:04.609Z,10.04
2022-08-07T01:10:38.252Z,10.03
2022-08-07T01:12:27.909Z,10.03
2022-08-07T01:12:38.657Z,10.07
2022-08-07T01:13:37.219Z,10.07
2022-08-07T01:14:37.333Z,10.04
2022-08-07T01:16:05.402Z,10.00
2022-08-07T01:16:38.180Z,9.93
2022-08-07T01:17:37.154Z,9.88
2022-08-07T01:18:37.144Z,9.83
2022-08-07T01:19:38.521Z,9.75
2022-08-07T01:20:43.218Z,9.71
2022-08-07T01:21:38.110Z,9.64
2022-08-07T01:22:37.111Z,9.63
2022-08-07T01:23:39.354Z,9.61
2022-08-07T01:24:37.059Z,9.61
2022-08-07T01:25:54.398Z,9.60
2022-08-07T01:26:38.052Z,9.61
2022-08-07T01:27:37.452Z,9.60
2022-08-07T01:28:38.021Z,9.60
2022-08-07T01:29:36.990Z,9.61
2022-08-07T01:30:36.977Z,9.63
2022-08-07T01:31:41.634Z,9.60
2022-08-07T01:32:37.951Z,9.57
2022-08-07T01:33:56.282Z,9.56
2022-08-07T01:34:37.945Z,9.56
2022-08-07T01:35:53.473Z,9.53
2022-08-07T01:36:40.676Z,9.52
2022-08-07T01:37:36.881Z,9.53
2022-08-07T01:38:36.868Z,9.53
2022-08-07T01:39:40.768Z,9.50
2022-08-07T01:40:37.844Z,9.50
2022-08-07T01:41:36.837Z,9.49
2022-08-07T01:42:57.669Z,9.46
2022-08-07T01:43:38.272Z,9.39
2022-08-07T01:44:36.797Z,9.28
2022-08-07T01:45:39.940Z,9.24
2022-08-07T01:46:36.754Z,9.18
2022-08-07T01:48:18.169Z,9.09
2022-08-07T01:48:41.081Z,8.96
2022-08-07T01:49:36.726Z,8.90
2022-08-07T01:50:36.718Z,8.81
2022-08-07T01:52:04.004Z,8.81
2022-08-07T01:52:37.807Z,8.83
2022-08-07T01:54:08.987Z,8.86
2022-08-07T01:54:37.798Z,8.87
2022-08-07T01:55:36.640Z,8.91
2022-08-07T01:56:36.640Z,8.94
2022-08-07T01:58:06.546Z,9.01
2022-08-07T01:58:41.096Z,9.04
2022-08-07T02:00:49.273Z,9.12
2022-08-07T02:02:02.613Z,9.15
2022-08-07T02:03:18.206Z,9.16
2022-08-07T02:03:51.040Z,9.16
2022-08-07T02:04:55.705Z,9.15
2022-08-07T02:06:01.027Z,9.13
2022-08-07T02:08:03.754Z,9.13
2022-08-07T02:09:00.536Z,9.13
2022-08-07T02:10:00.564Z,9.10
2022-08-07T02:11:00.456Z,9.10
2022-08-07T02:12:04.869Z,9.13
2022-08-07T02:13:00.447Z,9.16
2022-08-07T02:14:02.456Z,9.16
2022-08-07T02:15:00.679Z,9.16
2022-08-07T02:16:00.402Z,9.13
2022-08-07T02:17:00.378Z,9.12
2022-08-07T02:18:00.357Z,9.10
2022-08-07T02:19:00.362Z,9.12
2022-08-07T02:20:07.382Z,9.12
2022-08-07T02:21:01.341Z,9.15
2022-08-07T02:22:01.320Z,9.15
2022-08-07T02:23:00.289Z,9.15
2022-08-07T02:24:00.293Z,9.16
2022-08-07T02:25:00.268Z,9.15
2022-08-07T02:26:31.791Z,9.15
2022-08-07T02:27:02.437Z,9.13
2022-08-07T02:28:00.235Z,9.10
2022-08-07T02:29:00.217Z,9.10
2022-08-07T02:30:00.205Z,9.10
2022-08-07T02:31:00.204Z,9.10
2022-08-07T02:32:01.164Z,9.10
2022-08-07T02:33:09.172Z,9.10
2022-08-07T02:34:03.038Z,9.12
2022-08-07T02:35:00.994Z,9.13
2022-08-07T02:36:26.863Z,9.12
2022-08-07T02:37:01.101Z,9.15
2022-08-07T02:38:00.094Z,9.15
2022-08-07T02:39:00.197Z,9.15
2022-08-07T02:40:11.698Z,9.16
2022-08-07T02:41:01.148Z,9.13
2022-08-07T02:42:00.038Z,9.12
2022-08-07T02:43:00.023Z,9.09
2022-08-07T02:43:59.995Z,9.06
2022-08-07T02:45:00.011Z,9.05
2022-08-07T02:46:02.485Z,9.04
2022-08-07T02:46:59.967Z,9.02
2022-08-07T02:48:01.608Z,8.99
2022-08-07T02:48:59.935Z,8.97
2022-08-07T02:50:00.526Z,9.01
2022-08-07T02:50:59.921Z,9.02
2022-08-07T02:51:59.897Z,9.05
2022-08-07T02:53:03.442Z,8.99
2022-08-07T02:54:00.883Z,8.88
2022-08-07T02:54:59.857Z,8.79
2022-08-07T02:56:04.340Z,8.71
2022-08-07T02:57:00.827Z,8.62
2022-08-07T02:57:59.949Z,8.58
2022-08-07T02:58:59.820Z,8.58
2022-08-07T03:00:01.148Z,8.57
2022-08-07T03:01:00.827Z,8.60
2022-08-07T03:02:01.157Z,8.65
2022-08-07T03:02:59.749Z,8.65
2022-08-07T03:04:03.237Z,8.66
2022-08-07T03:05:00.720Z,8.66
2022-08-07T03:05:59.701Z,8.66
2022-08-07T03:06:59.713Z,8.68
2022-08-07T03:08:06.800Z,8.66
2022-08-07T03:09:00.689Z,8.66
2022-08-07T03:09:59.664Z,8.65
2022-08-07T03:10:59.633Z,8.68
2022-08-07T03:12:02.574Z,8.68
2022-08-07T03:12:59.610Z,8.68
2022-08-07T03:14:01.870Z,8.66
2022-08-07T03:15:02.388Z,8.65
2022-08-07T03:16:00.578Z,8.65
2022-08-07T03:16:59.553Z,8.66
2022-08-07T03:17:59.543Z,8.68
2022-08-07T03:18:59.549Z,8.69
2022-08-07T03:19:59.514Z,8.72
2022-08-07T03:20:59.518Z,8.73
2022-08-07T03:21:59.499Z,8.72
2022-08-07T03:22:59.476Z,8.69
2022-08-07T03:24:20.967Z,8.65
2022-08-07T03:25:00.501Z,8.62
2022-08-07T03:25:59.867Z,8.57
2022-08-07T03:26:59.678Z,8.54
2022-08-07T03:28:09.681Z,8.50
2022-08-07T03:29:00.409Z,8.47
2022-08-07T03:29:59.390Z,8.45
2022-08-07T03:30:59.366Z,8.42
2022-08-07T03:31:59.347Z,8.40
2022-08-07T03:33:01.013Z,8.37
2022-08-07T03:33:59.442Z,8.36
2022-08-07T03:35:00.916Z,8.39
2022-08-07T03:36:00.322Z,8.40
2022-08-07T03:36:59.280Z,8.42
2022-08-07T03:37:59.270Z,8.39
2022-08-07T03:38:59.305Z,8.37
2022-08-07T03:40:15.986Z,8.35
2022-08-07T03:41:00.296Z,8.33
2022-08-07T03:41:59.224Z,8.35
2022-08-07T03:42:59.200Z,8.30
2022-08-07T03:43:59.203Z,8.26
2022-08-07T03:44:59.178Z,8.26
2022-08-07T03:45:59.163Z,8.26
2022-08-07T03:47:13.286Z,8.22
2022-08-07T03:48:00.162Z,8.25
2022-08-07T03:49:02.929Z,8.25
2022-08-07T03:49:59.104Z,8.26
2022-08-07T03:50:59.146Z,8.28
2022-08-07T03:52:01.100Z,8.30
2022-08-07T03:52:59.087Z,8.32
2022-08-07T03:54:33.448Z,8.35
2022-08-07T03:55:06.844Z,8.35
2022-08-07T03:56:03.937Z,8.33
2022-08-07T03:57:03.728Z,8.35
2022-08-07T03:59:05.012Z,8.36
2022-08-07T03:59:09.417Z,8.39
2022-08-07T04:00:02.894Z,8.39
2022-08-07T04:01:00.260Z,8.40
2022-08-07T04:01:59.018Z,8.36
2022-08-07T04:02:58.942Z,8.33
2022-08-07T04:03:58.938Z,8.30
2022-08-07T04:04:59.017Z,8.28
2022-08-07T04:05:59.902Z,8.25
2022-08-07T04:07:00.172Z,8.25
2022-08-07T04:07:58.867Z,8.25
2022-08-07T04:08:58.879Z,8.25
2022-08-07T04:09:58.851Z,8.26
2022-08-07T04:10:58.828Z,8.26
2022-08-07T04:12:24.184Z,8.26
2022-08-07T04:12:59.809Z,8.26
2022-08-07T04:14:10.607Z,8.28
2022-08-07T04:15:00.220Z,8.29
2022-08-07T04:15:58.760Z,8.30
2022-08-07T04:16:59.057Z,8.32
2022-08-07T04:18:31.003Z,8.30
2022-08-07T04:19:01.650Z,8.32
2022-08-07T04:19:58.710Z,8.33
2022-08-07T04:20:58.714Z,8.36
2022-08-07T04:21:59.579Z,8.37
2022-08-07T04:23:01.463Z,8.39
2022-08-07T04:24:06.059Z,8.42
2022-08-07T04:25:01.352Z,8.44
2022-08-07T04:25:58.632Z,8.45
2022-08-07T04:26:59.636Z,8.47
2022-08-07T04:27:59.447Z,8.47
2022-08-07T04:28:58.694Z,8.48
2022-08-07T04:30:02.797Z,8.50
2022-08-07T04:30:59.590Z,8.50
2022-08-07T04:32:02.984Z,8.50
2022-08-07T04:32:59.656Z,8.51
2022-08-07T04:33:58.524Z,8.53
2022-08-07T04:34:58.528Z,8.51
2022-08-07T04:35:58.510Z,8.50
2022-08-07T04:36:58.487Z,8.48
2022-08-07T04:38:03.668Z,8.47
2022-08-07T04:38:59.516Z,8.47
2022-08-07T04:39:58.483Z,8.45
2022-08-07T04:40:58.449Z,8.45
2022-08-07T04:41:58.430Z,8.44
2022-08-07T04:43:03.224Z,8.47
2022-08-07T04:44:12.056Z,8.51
2022-08-07T04:45:03.250Z,8.55
2022-08-07T04:46:02.088Z,8.62
2022-08-07T04:47:03.974Z,8.62
2022-08-07T04:48:05.981Z,8.60
2022-08-07T04:48:59.452Z,8.60
2022-08-07T04:50:03.865Z,8.60
2022-08-07T04:50:59.300Z,8.60
2022-08-07T04:51:58.279Z,8.60
2022-08-07T04:52:58.865Z,8.62
2022-08-07T04:54:05.608Z,8.65
2022-08-07T04:54:59.380Z,8.66
2022-08-07T04:58:09.599Z,8.68
2022-08-07T04:58:11.258Z,8.66
2022-08-07T04:58:15.845Z,8.68
2022-08-07T05:00:12.833Z,8.76
2022-08-07T05:00:59.267Z,8.79
2022-08-07T05:01:58.180Z,8.83
2022-08-07T05:02:58.139Z,8.86
2022-08-07T05:04:07.112Z,8.90
2022-08-07T05:04:59.113Z,8.93
2022-08-07T05:05:58.093Z,8.96
2022-08-07T05:06:58.136Z,9.01
2022-08-07T05:07:58.064Z,9.04
2022-08-07T05:09:00.778Z,9.04
2022-08-07T05:09:58.056Z,9.09
2022-08-07T05:10:58.532Z,9.12
2022-08-07T05:12:02.322Z,9.18
2022-08-07T05:13:09.879Z,9.23
2022-08-07T05:14:52.439Z,9.27
2022-08-07T05:15:03.532Z,9.31
2022-08-07T05:15:58.957Z,9.38
2022-08-07T05:16:57.968Z,9.42
2022-08-07T05:17:58.226Z,9.46
2022-08-07T05:18:57.924Z,9.52
2022-08-07T05:19:57.918Z,9.58
2022-08-07T05:20:57.934Z,9.64
2022-08-07T05:22:00.691Z,9.73
2022-08-07T05:22:57.952Z,9.78
2022-08-07T05:23:57.871Z,9.85
2022-08-07T05:24:59.630Z,9.91
2022-08-07T05:26:13.787Z,9.96
2022-08-07T05:26:58.831Z,10.04
2022-08-07T05:28:02.872Z,10.10
2022-08-07T05:28:58.802Z,10.17
2022-08-07T05:29:57.782Z,10.22
2022-08-07T05:30:57.793Z,10.26
2022-08-07T05:31:57.753Z,10.34
2022-08-07T05:32:57.730Z,10.39
2022-08-07T05:34:01.020Z,10.46
2022-08-07T05:36:12.188Z,10.60
2022-08-07T05:37:09.690Z,10.68
2022-08-07T05:38:09.950Z,10.77
2022-08-07T05:40:14.033Z,10.84
2022-08-07T05:40:17.819Z,10.91
2022-08-07T05:41:14.219Z,10.98
2022-08-07T05:42:12.416Z,11.07
2022-08-07T05:43:10.519Z,11.13
2022-08-07T05:44:12.752Z,11.19
2022-08-07T05:45:25.751Z,11.24
2022-08-07T05:46:10.562Z,11.32
2022-08-07T05:47:18.041Z,11.36
2022-08-07T05:48:10.842Z,11.46
2022-08-07T05:49:12.562Z,11.53
2022-08-07T05:50:09.554Z,11.62
2022-08-07T05:51:09.504Z,11.68
2022-08-07T05:52:11.721Z,11.78
2022-08-07T05:54:08.454Z,11.83
2022-08-07T05:54:29.301Z,11.90
2022-08-07T05:55:11.235Z,11.99
2022-08-07T05:56:09.447Z,12.06
2022-08-07T05:57:09.416Z,12.12
2022-08-07T05:58:09.411Z,12.19
2022-08-07T05:59:09.409Z,12.27
2022-08-07T06:00:09.375Z,12.34
2022-08-07T06:01:10.817Z,12.41
2022-08-07T06:02:09.431Z,12.51
2022-08-07T06:03:09.347Z,12.57
2022-08-07T06:04:09.338Z,12.67
2022-08-07T06:05:10.803Z,12.74
2022-08-07T06:06:09.552Z,12.82
2022-08-07T06:07:09.301Z,12.92
2022-08-07T06:08:30.258Z,12.93
2022-08-07T06:09:10.258Z,13.02
2022-08-07T06:10:15.135Z,13.07
2022-08-07T06:11:10.265Z,13.17
2022-08-07T06:12:09.288Z,13.22
2022-08-07T06:13:13.353Z,13.29
2022-08-07T06:14:11.522Z,13.40
2022-08-07T06:15:09.179Z,13.47
2022-08-07T06:16:10.354Z,13.59
2022-08-07T06:17:09.179Z,13.69
2022-08-07T06:18:09.201Z,13.71
2022-08-07T06:19:09.154Z,13.76
2022-08-07T06:20:12.428Z,13.81
2022-08-07T06:22:15.241Z,14.02
2022-08-07T06:22:15.415Z,13.91
2022-08-07T06:23:46.706Z,14.13
2022-08-07T06:24:45.540Z,14.24
2022-08-07T06:25:10.410Z,14.32
2022-08-07T06:26:09.024Z,14.46
2022-08-07T06:27:09.027Z,14.60
2022-08-07T06:28:09.004Z,14.72
2022-08-07T06:29:10.028Z,14.88
2022-08-07T06:30:08.979Z,15.02
2022-08-07T06:31:09.956Z,15.13
2022-08-07T06:32:08.960Z,15.26
2022-08-07T06:33:09.993Z,15.38
2022-08-07T06:34:09.917Z,15.56
2022-08-07T06:35:17.646Z,15.68
2022-08-07T06:36:13.121Z,15.78
2022-08-07T06:37:08.890Z,15.92
2022-08-07T06:38:10.130Z,16.06
2022-08-07T06:40:13.135Z,16.20
2022-08-07T06:40:15.952Z,16.14
2022-08-07T06:41:12.995Z,16.20
2022-08-07T06:42:09.123Z,16.30
2022-08-07T06:43:21.066Z,16.38
2022-08-07T06:44:10.830Z,16.48
2022-08-07T06:45:11.234Z,16.59
2022-08-07T06:46:11.642Z,16.70
2022-08-07T06:47:12.387Z,16.83
2022-08-07T06:48:11.352Z,16.95
2022-08-07T06:49:08.733Z,17.07
2022-08-07T06:50:08.717Z,17.15
2022-08-07T06:51:08.753Z,17.30
2022-08-07T06:52:10.217Z,17.43
2022-08-07T06:54:11.527Z,17.50
2022-08-07T06:55:29.645Z,17.63
2022-08-07T06:55:32.195Z,17.76
2022-08-07T06:56:15.004Z,17.87
2022-08-07T06:57:09.633Z,17.94
2022-08-07T06:58:10.235Z,18.06
2022-08-07T07:00:11.393Z,18.13
2022-08-07T07:00:14.210Z,18.21
2022-08-07T07:01:09.592Z,18.29
2022-08-07T07:02:08.636Z,18.40
2022-08-07T07:03:13.972Z,18.50
2022-08-07T07:04:28.329Z,18.64
2022-08-07T07:05:09.499Z,18.76
2022-08-07T07:06:11.263Z,18.80
2022-08-07T07:07:18.899Z,18.90
2022-08-07T07:08:10.113Z,18.94
2022-08-07T07:09:08.471Z,18.98
2022-08-07T07:10:08.443Z,19.06
2022-08-07T07:11:14.467Z,19.10
2022-08-07T07:12:15.643Z,19.21
2022-08-07T07:13:10.009Z,19.35
2022-08-07T07:14:09.811Z,19.40
2022-08-07T07:15:09.040Z,19.51
2022-08-07T07:16:09.355Z,19.60
2022-08-07T07:17:08.331Z,19.65
2022-08-07T07:18:09.310Z,19.73
2022-08-07T07:19:16.198Z,19.86
2022-08-07T07:20:09.282Z,19.91
2022-08-07T07:21:13.477Z,19.98
2022-08-07T07:22:33.862Z,20.02
2022-08-07T07:24:08.992Z,20.09
2022-08-07T07:24:12.576Z,20.15
2022-08-07T07:26:30.877Z,20.20
2022-08-07T07:26:34.582Z,20.23
2022-08-07T07:27:09.207Z,20.33
2022-08-07T07:28:42.019Z,20.46
2022-08-07T07:29:56.147Z,20.54
2022-08-07T07:30:11.948Z,20.54
2022-08-07T07:31:08.160Z,20.62
2022-08-07T07:32:08.134Z,20.77
2022-08-07T07:33:08.129Z,20.89
2022-08-07T07:34:08.120Z,20.99
2022-08-07T07:35:08.088Z,21.04
2022-08-07T07:36:13.413Z,21.05
2022-08-07T07:37:21.820Z,21.14
2022-08-07T07:38:09.048Z,21.26
2022-08-07T07:39:08.111Z,21.30
2022-08-07T07:40:14.935Z,21.36
2022-08-07T07:41:09.244Z,21.50
2022-08-07T07:42:13.320Z,21.64
2022-08-07T07:43:15.367Z,21.82
2022-08-07T07:44:17.223Z,21.92
2022-08-07T07:45:08.983Z,22.02
2022-08-07T07:46:36.533Z,22.19
2022-08-07T07:47:15.910Z,22.35
2022-08-07T07:48:08.925Z,22.49
2022-08-07T07:49:09.127Z,22.64
2022-08-07T07:50:34.881Z,22.78
2022-08-07T07:51:08.883Z,22.96
2022-08-07T07:52:07.854Z,23.04
2022-08-07T07:53:20.689Z,23.08
2022-08-07T07:54:08.847Z,23.14
2022-08-07T07:55:07.814Z,23.27
2022-08-07T07:56:07.818Z,23.43
2022-08-07T07:57:07.785Z,23.49
2022-08-07T07:58:07.776Z,23.47
2022-08-07T07:59:07.775Z,23.52
2022-08-07T08:00:09.199Z,23.65
2022-08-07T08:02:01.811Z,23.85
2022-08-07T08:02:10.583Z,23.95
2022-08-07T08:03:08.101Z,24.00
2022-08-07T08:04:10.280Z,24.10
2022-08-07T08:05:14.179Z,24.16
2022-08-07T08:06:13.060Z,24.23
2022-08-07T08:07:07.813Z,24.26
2022-08-07T08:08:07.662Z,24.23
2022-08-07T08:09:09.747Z,24.16
2022-08-07T08:10:07.619Z,24.07
2022-08-07T08:11:08.531Z,24.13
2022-08-07T08:12:07.591Z,24.12
2022-08-07T08:13:10.383Z,24.17
2022-08-07T08:14:08.577Z,23.76
2022-08-07T08:15:07.553Z,23.46
2022-08-07T08:16:07.535Z,23.45
2022-08-07T08:17:56.230Z,23.35
2022-08-07T08:18:17.579Z,23.55
2022-08-07T08:19:17.332Z,22.35
2022-08-07T08:20:19.142Z,21.66
2022-08-07T08:21:08.461Z,21.76
2022-08-07T08:22:07.831Z,21.78
2022-08-07T08:23:08.505Z,21.82
2022-08-07T08:24:07.426Z,22.10
2022-08-07T08:25:24.782Z,22.34
2022-08-07T08:26:08.421Z,22.56
2022-08-07T08:27:09.575Z,22.52
2022-08-07T08:28:07.382Z,22.82
2022-08-07T08:29:08.256Z,23.23
2022-08-07T08:30:07.341Z,23.71
2022-08-07T08:31:07.344Z,24.13
2022-08-07T08:32:18.288Z,24.53
2022-08-07T08:33:15.105Z,24.85
2022-08-07T08:34:08.371Z,25.20
2022-08-07T08:35:07.609Z,25.56
2022-08-07T08:36:07.287Z,25.90
2022-08-07T08:37:09.795Z,26.24
2022-08-07T08:38:08.529Z,26.46
2022-08-07T08:39:07.257Z,26.50
2022-08-07T08:40:07.250Z,26.58
2022-08-07T08:41:08.248Z,26.54
2022-08-07T08:42:07.198Z,26.47
2022-08-07T08:43:07.200Z,26.52
2022-08-07T08:44:07.277Z,26.58
2022-08-07T08:45:13.047Z,26.54
2022-08-07T08:46:08.125Z,26.65
2022-08-07T08:47:09.779Z,26.61
2022-08-07T08:48:07.112Z,26.58
2022-08-07T08:49:07.117Z,26.76
2022-08-07T08:50:07.183Z,26.87
2022-08-07T08:51:14.651Z,26.99
2022-08-07T08:52:14.420Z,27.10
2022-08-07T08:53:08.042Z,26.86
2022-08-07T08:54:07.041Z,25.62
2022-08-07T08:55:07.619Z,25.17
2022-08-07T08:56:07.147Z,25.09
2022-08-07T08:57:06.977Z,25.32
2022-08-07T08:58:06.971Z,25.32
2022-08-07T08:59:13.522Z,25.50
2022-08-07T09:00:07.940Z,25.52
2022-08-07T09:01:15.249Z,25.01
2022-08-07T09:02:09.056Z,24.69
2022-08-07T09:03:07.660Z,24.79
2022-08-07T09:04:06.886Z,24.68
2022-08-07T09:05:06.885Z,24.52
2022-08-07T09:06:06.874Z,24.38
2022-08-07T09:07:06.904Z,24.20
2022-08-07T09:08:06.848Z,24.45
2022-08-07T09:09:09.680Z,24.76
2022-08-07T09:10:07.825Z,25.10
2022-08-07T09:11:06.840Z,25.49
2022-08-07T09:12:20.265Z,25.84
2022-08-07T09:13:07.850Z,26.25
2022-08-07T09:14:06.769Z,26.52
2022-08-07T09:16:22.033Z,26.98
2022-08-07T09:16:25.528Z,26.77
2022-08-07T09:17:07.711Z,26.57
2022-08-07T09:18:08.753Z,26.64
2022-08-07T09:19:50.786Z,25.91
2022-08-07T09:20:24.969Z,25.30
2022-08-07T09:21:13.632Z,25.46
2022-08-07T09:22:22.656Z,25.79
2022-08-07T09:24:29.266Z,25.56
2022-08-07T09:24:33.139Z,25.42
2022-08-07T09:25:14.516Z,25.62
2022-08-07T09:26:07.614Z,26.18
2022-08-07T09:27:11.954Z,26.81
2022-08-07T09:30:02.337Z,27.38
2022-08-07T09:30:04.214Z,27.85
2022-08-07T09:30:08.992Z,27.66
2022-08-07T09:31:06.542Z,27.53
2022-08-07T09:32:18.610Z,27.58
2022-08-07T09:33:24.470Z,27.70
2022-08-07T09:34:07.499Z,27.92
2022-08-07T09:36:02.891Z,27.62
2022-08-07T09:36:07.793Z,27.79
2022-08-07T09:37:06.446Z,27.21
2022-08-07T09:38:06.446Z,27.10
2022-08-07T09:39:11.329Z,27.20
2022-08-07T09:40:07.599Z,27.47
2022-08-07T09:41:06.393Z,27.96
2022-08-07T09:42:07.864Z,28.38
2022-08-07T09:43:08.397Z,28.68
2022-08-07T09:44:10.324Z,28.96
2022-08-07T09:47:25.741Z,29.01
2022-08-07T09:47:51.624Z,28.93
2022-08-07T09:47:52.543Z,29.07
2022-08-07T09:48:12.012Z,28.80
2022-08-07T09:50:01.197Z,28.58
2022-08-07T09:50:19.218Z,28.81
2022-08-07T09:51:14.751Z,28.81
2022-08-07T09:52:15.508Z,28.87
2022-08-07T09:53:07.249Z,29.01
2022-08-07T09:54:06.269Z,29.25
2022-08-07T09:55:06.205Z,29.47
2022-08-07T09:56:07.381Z,29.31
2022-08-07T09:57:06.285Z,29.28
2022-08-07T09:58:07.165Z,28.33
2022-08-07T09:59:07.847Z,27.76
2022-08-07T10:00:07.135Z,27.69
2022-08-07T10:01:08.322Z,27.79
2022-08-07T10:02:07.218Z,27.33
2022-08-07T10:03:08.166Z,27.43
2022-08-07T10:04:14.874Z,27.73
2022-08-07T10:05:12.464Z,28.13
2022-08-07T10:06:12.243Z,28.40
2022-08-07T10:07:24.177Z,28.25
2022-08-07T10:08:07.074Z,27.53
2022-08-07T10:09:06.030Z,27.48
2022-08-07T10:10:06.023Z,26.91
2022-08-07T10:11:59.494Z,25.82
2022-08-07T10:12:13.294Z,25.90
2022-08-07T10:13:15.944Z,25.20
2022-08-07T10:14:07.117Z,24.76
2022-08-07T10:15:06.263Z,24.60
2022-08-07T10:16:05.928Z,25.02
2022-08-07T10:17:14.264Z,25.61
2022-08-07T10:18:06.903Z,26.09
2022-08-07T10:19:11.423Z,26.57
2022-08-07T10:20:06.895Z,27.09
2022-08-07T10:21:08.672Z,27.76
2022-08-07T10:22:14.676Z,27.38
2022-08-07T10:23:07.539Z,27.47
2022-08-07T10:24:08.556Z,27.05
2022-08-07T10:25:05.803Z,26.08
2022-08-07T10:26:05.938Z,26.31
2022-08-07T10:27:06.743Z,26.95
2022-08-07T10:28:05.772Z,27.36
2022-08-07T10:29:05.731Z,27.50
2022-08-07T10:30:06.419Z,28.09
2022-08-07T10:31:06.079Z,28.31
2022-08-07T10:32:06.730Z,28.33
2022-08-07T10:33:06.697Z,28.50
2022-08-07T10:34:15.257Z,28.68
2022-08-07T10:35:09.104Z,28.91
2022-08-07T10:36:11.318Z,28.43
2022-08-07T10:37:12.447Z,27.57
2022-08-07T10:38:21.120Z,27.43
2022-08-07T10:39:06.628Z,27.86
2022-08-07T10:40:09.092Z,27.88
2022-08-07T10:41:05.590Z,27.79
2022-08-07T10:42:09.897Z,27.79
2022-08-07T10:43:06.546Z,27.50
2022-08-07T10:44:07.343Z,27.66
2022-08-07T10:45:05.774Z,27.70
2022-08-07T10:46:05.516Z,27.79
2022-08-07T10:47:05.781Z,27.43
2022-08-07T10:48:07.349Z,27.23
2022-08-07T10:49:05.482Z,26.52
2022-08-07T10:50:05.582Z,26.89
2022-08-07T10:51:05.438Z,26.87
2022-08-07T10:52:13.165Z,26.61
2022-08-07T10:53:08.009Z,26.77
2022-08-07T10:54:05.409Z,27.24
2022-08-07T10:55:21.001Z,26.81
2022-08-07T10:56:06.424Z,27.20
2022-08-07T10:57:05.363Z,27.46
2022-08-07T10:58:05.352Z,27.11
2022-08-07T10:59:05.346Z,26.89
2022-08-07T11:00:05.322Z,26.77
2022-08-07T11:01:05.460Z,27.35
2022-08-07T11:02:27.351Z,28.03
2022-08-07T11:03:11.286Z,28.48
2022-08-07T11:04:16.474Z,28.51
2022-08-07T11:05:10.559Z,28.96
2022-08-07T11:06:05.244Z,29.71
2022-08-07T11:07:05.277Z,30.38
2022-08-07T11:08:06.467Z,30.89
2022-08-07T11:09:11.554Z,29.25
2022-08-07T11:10:09.158Z,27.20
2022-08-07T11:11:05.176Z,25.97
2022-08-07T11:12:05.396Z,26.02
2022-08-07T11:13:05.202Z,26.57
2022-08-07T11:14:57.045Z,27.20
2022-08-07T11:15:14.706Z,27.99
2022-08-07T11:16:07.124Z,28.69
2022-08-07T11:17:07.353Z,29.29
2022-08-07T11:18:05.089Z,29.53
2022-08-07T11:19:05.193Z,29.68
2022-08-07T11:20:05.060Z,30.07
2022-08-07T11:21:05.056Z,30.57
2022-08-07T11:22:05.046Z,30.81
2022-08-07T11:23:05.019Z,30.93
2022-08-07T11:24:05.026Z,31.15
2022-08-07T11:25:06.569Z,31.23
2022-08-07T11:26:06.407Z,31.42
2022-08-07T11:27:04.979Z,31.24
2022-08-07T11:28:05.198Z,31.46
2022-08-07T11:29:05.646Z,31.64
2022-08-07T11:30:17.650Z,31.79
2022-08-07T11:31:08.760Z,30.24
2022-08-07T11:32:05.906Z,28.63
2022-08-07T11:33:07.906Z,28.29
2022-08-07T11:34:05.891Z,28.06
2022-08-07T11:35:04.857Z,28.07
2022-08-07T11:36:09.927Z,27.91
2022-08-07T11:37:06.726Z,28.17
2022-08-07T11:38:12.644Z,28.53
2022-08-07T11:39:07.051Z,27.43
2022-08-07T11:40:04.864Z,27.82
2022-08-07T11:41:04.795Z,27.95
2022-08-07T11:42:04.816Z,27.02
2022-08-07T11:43:04.751Z,26.87
2022-08-07T11:44:12.809Z,27.28
2022-08-07T11:45:05.733Z,27.43
2022-08-07T11:46:04.712Z,27.80
2022-08-07T11:47:04.716Z,28.04
2022-08-07T11:48:13.778Z,28.54
2022-08-07T11:49:50.090Z,29.11
2022-08-07T11:50:31.930Z,29.38
2022-08-07T11:51:09.052Z,29.86
2022-08-07T11:52:04.640Z,30.02
2022-08-07T11:53:04.975Z,30.24
2022-08-07T11:54:09.778Z,30.76
2022-08-07T11:55:09.034Z,31.11
2022-08-07T11:56:13.969Z,31.04
2022-08-07T11:57:05.581Z,31.01
2022-08-07T11:58:05.570Z,31.49
2022-08-07T12:00:07.610Z,31.91
2022-08-07T12:00:11.139Z,32.11
2022-08-07T12:01:06.834Z,32.00
2022-08-07T12:02:04.578Z,31.15
2022-08-07T12:03:05.490Z,30.86
2022-08-07T12:04:04.485Z,31.23
2022-08-07T12:05:04.571Z,31.70
2022-08-07T12:06:37.483Z,31.39
2022-08-07T12:07:09.083Z,30.67
2022-08-07T12:08:05.426Z,29.28
2022-08-07T12:09:04.427Z,29.00
2022-08-07T12:10:05.679Z,29.63
2022-08-07T12:11:20.037Z,29.79
2022-08-07T12:12:09.450Z,30.03
2022-08-07T12:13:11.542Z,30.33
2022-08-07T12:14:05.352Z,30.14
2022-08-07T12:15:04.355Z,30.09
2022-08-07T12:16:06.718Z,30.49
2022-08-07T12:17:05.417Z,30.46
2022-08-07T12:18:11.131Z,30.07
2022-08-07T12:19:05.300Z,29.94
2022-08-07T12:20:08.829Z,28.96
2022-08-07T12:21:05.272Z,28.59
2022-08-07T12:22:38.845Z,28.22
2022-08-07T12:26:00.328Z,28.82
2022-08-07T12:26:03.448Z,28.56
2022-08-07T12:26:29.742Z,28.22
2022-08-07T12:28:05.843Z,28.56
2022-08-07T12:28:30.996Z,29.16
2022-08-07T12:29:38.447Z,28.93
2022-08-07T12:30:23.536Z,28.44
2022-08-07T12:31:22.503Z,28.70
2022-08-07T12:32:21.173Z,28.75
2022-08-07T12:33:23.089Z,29.07
2022-08-07T12:34:22.799Z,28.72
2022-08-07T12:35:21.029Z,28.48
2022-08-07T12:36:32.979Z,28.14
2022-08-07T12:37:23.513Z,28.36
2022-08-07T12:38:37.017Z,28.69
2022-08-07T12:39:42.948Z,28.35
2022-08-07T12:40:46.443Z,28.65
2022-08-07T12:41:22.038Z,29.55
2022-08-07T12:42:27.136Z,30.30
2022-08-07T12:43:58.790Z,31.01
2022-08-07T12:44:21.902Z,31.50
2022-08-07T12:45:20.905Z,31.98
2022-08-07T12:46:26.624Z,32.36
2022-08-07T12:47:30.393Z,32.86
2022-08-07T12:48:27.651Z,32.48
2022-08-07T12:49:25.770Z,30.86
2022-08-07T12:50:39.315Z,29.52
2022-08-07T12:51:51.302Z,29.56
2022-08-07T12:52:21.831Z,28.77
2022-08-07T12:53:22.128Z,28.48
2022-08-07T12:54:38.511Z,28.93
2022-08-07T12:55:21.764Z,28.23
2022-08-07T12:56:21.799Z,28.03
2022-08-07T12:57:20.814Z,28.07
2022-08-07T12:59:54.784Z,28.36
2022-08-07T12:59:54.819Z,28.04
2022-08-07T13:00:50.456Z,28.70
2022-08-07T13:06:01.679Z,28.17
2022-08-07T13:06:03.725Z,29.37
2022-08-07T13:06:26.945Z,29.92
2022-08-07T13:24:25.645Z,30.83
2022-08-07T13:24:30.654Z,33.39
2022-08-07T13:25:30.799Z,32.17